createdAt,value
2018-04-23T00:02:17.979Z,99066.20
2018-04-23T00:04:57.269Z,99060.38
2018-04-23T00:07:36.479Z,99070.62
2018-04-23T00:10:14.989Z,99062.80
2018-04-23T00:12:54.040Z,99058.89
2018-04-23T00:15:32.229Z,99054.88
2018-04-23T00:18:10.547Z,99066.60
2018-04-23T00:20:49.053Z,99049.59
2018-04-23T00:23:27.623Z,99064.70
2018-04-23T00:26:08.051Z,99066.84
2018-04-23T00:28:48.163Z,99060.78
2018-04-23T00:31:27.325Z,99068.17
2018-04-23T00:34:07.853Z,99071.25
2018-04-23T00:36:46.371Z,99061.41
2018-04-23T00:39:24.827Z,99059.82
2018-04-23T00:42:04.498Z,99057.42
2018-04-23T00:44:42.790Z,99061.84
2018-04-23T00:47:21.090Z,99063.72
2018-04-23T00:49:59.955Z,99064.03
2018-04-23T00:52:38.580Z,99064.20
2018-04-23T00:55:17.038Z,99065.55
2018-04-23T00:57:55.709Z,99061.30
2018-04-23T01:00:34.145Z,99061.53
2018-04-23T01:03:13.162Z,99069.48
2018-04-23T01:05:52.059Z,99064.66
2018-04-23T01:08:30.797Z,99060.25
2018-04-23T01:11:09.544Z,99054.06
2018-04-23T01:13:47.799Z,99050.52
2018-04-23T01:16:26.149Z,99049.66
2018-04-23T01:19:05.333Z,99059.86
2018-04-23T01:21:43.784Z,99058.74
2018-04-23T01:24:21.872Z,99047.50
2018-04-23T01:27:01.905Z,99047.63
2018-04-23T01:29:40.296Z,99044.41
2018-04-23T01:32:19.140Z,99048.95
2018-04-23T01:34:58.726Z,99042.17
2018-04-23T01:37:37.042Z,99042.33
2018-04-23T01:40:15.311Z,99037.29
2018-04-23T01:42:54.273Z,99036.17
2018-04-23T01:45:33.424Z,99037.12
2018-04-23T01:48:11.534Z,99042.85
2018-04-23T01:50:50.177Z,99044.52
2018-04-23T01:53:28.567Z,99033.88
2018-04-23T01:56:07.052Z,99043.25
2018-04-23T01:58:45.224Z,99042.91
2018-04-23T02:01:24.320Z,99044.77
2018-04-23T02:04:02.537Z,99046.41
2018-04-23T02:06:42.417Z,99042.42
2018-04-23T02:09:21.484Z,99046.67
2018-04-23T02:12:00.161Z,99047.48
2018-04-23T02:14:39.474Z,99052.49
2018-04-23T02:17:22.206Z,99048.70
2018-04-23T02:20:00.443Z,99049.36
2018-04-23T02:22:39.264Z,99049.22
2018-04-23T02:25:17.435Z,99051.00
2018-04-23T02:27:56.099Z,99050.05
2018-04-23T02:30:34.433Z,99046.91
2018-04-23T02:33:12.542Z,99050.77
2018-04-23T02:35:50.908Z,99050.70
2018-04-23T02:38:29.300Z,99040.25
2018-04-23T02:41:07.484Z,99042.87
2018-04-23T02:43:46.314Z,99038.93
2018-04-23T02:46:25.180Z,99040.55
2018-04-23T02:49:04.023Z,99041.52
2018-04-23T02:51:42.816Z,99047.23
2018-04-23T02:54:21.133Z,99044.58
2018-04-23T02:56:59.544Z,99048.19
2018-04-23T02:59:38.815Z,99052.86
2018-04-23T03:02:17.445Z,99050.19
2018-04-23T03:04:55.834Z,99046.83
2018-04-23T03:07:33.824Z,99047.59
2018-04-23T03:10:12.229Z,99051.84
2018-04-23T03:12:50.192Z,99047.75
2018-04-23T03:15:29.096Z,99045.12
2018-04-23T03:18:07.987Z,99046.33
2018-04-23T03:20:46.276Z,99042.50
2018-04-23T03:23:24.418Z,99042.91
2018-04-23T03:26:03.806Z,99037.58
2018-04-23T03:28:42.717Z,99036.03
2018-04-23T03:31:20.932Z,99034.43
2018-04-23T03:33:59.052Z,99031.97
2018-04-23T03:36:38.283Z,99030.85
2018-04-23T03:39:16.425Z,99037.08
2018-04-23T03:41:55.275Z,99038.19
2018-04-23T03:44:33.544Z,99034.27
2018-04-23T03:47:12.768Z,99034.35
2018-04-23T03:49:52.460Z,99037.04
2018-04-23T03:52:35.593Z,99040.75
2018-04-23T03:55:13.839Z,99038.63
2018-04-23T03:57:55.791Z,99037.80
2018-04-23T04:00:34.313Z,99035.95
2018-04-23T04:03:17.326Z,99043.81
2018-04-23T04:05:56.526Z,99042.66
2018-04-23T04:08:35.987Z,99044.77
2018-04-23T04:11:15.289Z,99045.63
2018-04-23T04:14:10.831Z,99040.22
2018-04-23T04:17:05.817Z,99040.28
2018-04-23T04:19:44.539Z,99046.70
2018-04-23T04:22:22.598Z,99044.00
2018-04-23T04:25:02.351Z,99047.38
2018-04-23T04:27:40.683Z,99050.70
2018-04-23T04:30:19.144Z,99048.30
2018-04-23T04:32:57.442Z,99048.65
2018-04-23T04:35:36.384Z,99049.66
2018-04-23T04:38:15.028Z,99053.23
2018-04-23T04:40:54.174Z,99055.58
2018-04-23T04:43:32.125Z,99059.03
2018-04-23T04:46:10.330Z,99053.86
2018-04-23T04:48:49.573Z,99059.07
2018-04-23T04:51:28.143Z,99063.59
2018-04-23T04:54:06.319Z,99059.95
2018-04-23T04:56:44.969Z,99057.34
2018-04-23T04:59:23.433Z,99058.45
2018-04-23T05:02:02.459Z,99065.69
2018-04-23T05:04:43.396Z,99068.52
2018-04-23T05:07:24.123Z,99059.50
2018-04-23T05:10:02.393Z,99063.13
2018-04-23T05:12:44.578Z,99069.02
2018-04-23T05:15:23.719Z,99066.00
2018-04-23T05:18:03.043Z,99073.31
2018-04-23T05:20:42.321Z,99072.08
2018-04-23T05:23:22.604Z,99077.06
2018-04-23T05:26:01.142Z,99075.53
2018-04-23T05:28:43.101Z,99072.53
2018-04-23T05:31:23.089Z,99070.44
2018-04-23T05:34:03.212Z,99063.17
2018-04-23T05:36:45.347Z,99070.63
2018-04-23T05:39:25.407Z,99072.76
2018-04-23T05:42:07.332Z,99068.98
2018-04-23T05:44:46.462Z,99071.33
2018-04-23T05:47:27.881Z,99077.03
2018-04-23T05:50:05.891Z,99085.45
2018-04-23T05:52:44.036Z,99102.31
2018-04-23T05:55:25.428Z,99110.06
2018-04-23T05:58:08.951Z,99110.61
2018-04-23T06:00:47.971Z,99108.22
2018-04-23T06:03:29.010Z,99112.54
2018-04-23T06:06:09.476Z,99109.30
2018-04-23T06:08:47.903Z,99116.48
2018-04-23T06:11:31.473Z,99124.52
2018-04-23T06:14:18.772Z,99125.16
2018-04-23T06:17:04.906Z,99126.66
2018-04-23T06:19:45.172Z,99123.61
2018-04-23T06:22:28.975Z,99116.70
2018-04-23T06:25:10.595Z,99123.67
2018-04-23T06:27:51.272Z,99117.83
2018-04-23T06:30:31.564Z,99113.59
2018-04-23T06:33:11.930Z,99127.28
2018-04-23T06:35:57.829Z,99134.42
2018-04-23T06:38:41.388Z,99128.86
2018-04-23T06:41:20.798Z,99131.86
2018-04-23T06:43:59.689Z,99124.95
2018-04-23T06:46:40.224Z,99127.84
2018-04-23T06:49:18.603Z,99130.28
2018-04-23T06:52:02.282Z,99144.07
2018-04-23T06:54:43.219Z,99141.70
2018-04-23T06:57:22.638Z,99146.13
2018-04-23T07:00:03.684Z,99145.22
2018-04-23T07:02:42.527Z,99142.44
2018-04-23T07:05:26.892Z,99134.81
2018-04-23T07:08:13.107Z,99132.76
2018-04-23T07:11:00.154Z,99134.56
2018-04-23T07:13:41.444Z,99131.34
2018-04-23T07:16:22.364Z,99136.14
2018-04-23T07:19:00.709Z,99134.56
2018-04-23T07:21:40.879Z,99138.95
2018-04-23T07:24:20.147Z,99144.16
2018-04-23T07:27:01.231Z,99142.63
2018-04-23T07:29:40.194Z,99151.95
2018-04-23T07:32:20.613Z,99150.11
2018-04-23T07:34:59.148Z,99157.77
2018-04-23T07:37:40.773Z,99165.45
2018-04-23T07:40:20.782Z,99162.91
2018-04-23T07:43:05.704Z,99162.96
2018-04-23T07:45:43.738Z,99160.39
2018-04-23T07:48:22.016Z,99153.23
2018-04-23T07:51:03.519Z,99159.34
2018-04-23T07:53:42.266Z,99165.87
2018-04-23T07:56:26.688Z,99160.77
2018-04-23T07:59:04.923Z,99162.12
2018-04-23T08:01:44.440Z,99162.27
2018-04-23T08:04:24.608Z,99150.38
2018-04-23T08:07:02.855Z,99155.67
2018-04-23T08:09:44.111Z,99161.06
2018-04-23T08:12:23.393Z,99165.23
2018-04-23T08:17:49.810Z,99173.47
2018-04-23T08:20:28.058Z,99178.55
2018-04-23T08:23:06.843Z,99167.67
2018-04-23T08:25:45.968Z,99164.80
2018-04-23T08:28:27.717Z,99162.41
2018-04-23T08:31:07.469Z,99164.92
2018-04-23T08:33:46.843Z,99164.06
2018-04-23T08:36:28.289Z,99163.22
2018-04-23T08:39:08.377Z,99164.31
2018-04-23T08:41:47.940Z,99161.35
2018-04-23T08:44:29.863Z,99162.27
2018-04-23T08:47:08.920Z,99167.30
2018-04-23T08:49:47.817Z,99159.11
2018-04-23T08:52:30.119Z,99163.63
2018-04-23T08:55:08.375Z,99164.28
2018-04-23T08:57:48.699Z,99161.70
2018-04-23T09:00:28.882Z,99157.67
2018-04-23T09:03:11.466Z,99155.46
2018-04-23T09:05:50.450Z,99156.46
2018-04-23T09:08:31.717Z,99159.16
2018-04-23T09:11:10.371Z,99166.58
2018-04-23T09:13:50.021Z,99187.56
2018-04-23T09:16:31.596Z,99181.23
2018-04-23T09:19:10.672Z,99179.19
2018-04-23T09:21:53.403Z,99171.91
2018-04-23T09:24:31.531Z,99168.28
2018-04-23T09:27:10.876Z,99180.55
2018-04-23T09:29:52.967Z,99179.86
2018-04-23T09:32:33.321Z,99181.95
2018-04-23T09:35:12.893Z,99184.42
2018-04-23T09:38:01.367Z,99191.92
2018-04-23T09:40:39.750Z,99205.23
2018-04-23T09:43:17.768Z,99213.56
2018-04-23T09:45:57.295Z,99220.18
2018-04-23T09:48:35.341Z,99219.45
2018-04-23T09:51:15.563Z,99217.61
2018-04-23T09:53:55.304Z,99211.70
2018-04-23T09:56:38.053Z,99213.91
2018-04-23T09:59:16.830Z,99200.84
2018-04-23T10:01:57.201Z,99199.23
2018-04-23T10:04:37.758Z,99193.61
2018-04-23T10:07:16.501Z,99201.59
2018-04-23T10:09:58.077Z,99197.31
2018-04-23T10:12:36.782Z,99205.63
2018-04-23T10:15:16.449Z,99202.66
2018-04-23T10:18:00.185Z,99195.20
2018-04-23T10:20:38.608Z,99194.38
2018-04-23T10:23:17.998Z,99187.45
2018-04-23T10:25:59.299Z,99189.38
2018-04-23T10:28:38.463Z,99192.80
2018-04-23T10:31:20.391Z,99181.79
2018-04-23T10:34:00.122Z,99181.56
2018-04-23T10:36:43.040Z,99181.70
2018-04-23T10:42:13.659Z,99182.72
2018-04-23T10:45:04.629Z,99186.32
2018-04-23T10:47:42.918Z,99178.16
2018-04-23T10:50:23.456Z,99182.06
2018-04-23T10:53:02.357Z,99173.41
2018-04-23T10:55:43.087Z,99168.88
2018-04-23T10:58:28.030Z,99167.95
2018-04-23T11:01:07.931Z,99172.92
2018-04-23T11:03:48.586Z,99174.08
2018-04-23T11:06:27.027Z,99169.88
2018-04-23T11:09:06.056Z,99175.86
2018-04-23T11:11:52.515Z,99169.97
2018-04-23T11:14:30.954Z,99164.94
2018-04-23T11:17:22.587Z,99161.48
2018-04-23T11:20:05.227Z,99154.98
2018-04-23T11:22:47.073Z,99164.48
2018-04-23T11:25:26.207Z,99165.16
2018-04-23T11:28:05.725Z,99161.34
2018-04-23T11:30:46.219Z,99164.45
2018-04-23T11:33:25.941Z,99165.93
2018-04-23T11:36:08.270Z,99170.63
2018-04-23T11:38:46.680Z,99164.30
2018-04-23T11:41:31.192Z,99172.56
2018-04-23T11:44:25.269Z,99170.59
2018-04-23T11:47:11.065Z,99172.38
2018-04-23T11:49:49.137Z,99172.06
2018-04-23T11:52:33.866Z,99177.15
2018-04-23T11:55:18.176Z,99174.53
2018-04-23T11:58:08.947Z,99170.30
2018-04-23T12:01:06.606Z,99168.03
2018-04-23T12:03:52.175Z,99172.95
2018-04-23T12:06:32.014Z,99166.12
2018-04-23T12:09:16.244Z,99161.37
2018-04-23T12:12:00.283Z,99165.63
2018-04-23T12:14:54.346Z,99159.42
2018-04-23T12:17:34.768Z,99154.70
2018-04-23T12:20:14.053Z,99154.17
2018-04-23T12:23:00.447Z,99155.09
2018-04-23T12:25:39.514Z,99156.55
2018-04-23T12:28:17.864Z,99166.07
2018-04-23T12:30:57.069Z,99160.66
2018-04-23T12:33:35.268Z,99165.78
2018-04-23T12:36:15.474Z,99159.17
2018-04-23T12:38:54.637Z,99158.09
2018-04-23T12:41:33.521Z,99154.87
2018-04-23T12:44:15.236Z,99141.48
2018-04-23T12:46:56.138Z,99134.03
2018-04-23T12:49:36.182Z,99128.66
2018-04-23T12:52:15.768Z,99117.99
2018-04-23T12:54:55.846Z,99114.73
2018-04-23T12:57:36.672Z,99116.23
2018-04-23T13:00:26.485Z,99108.34
2018-04-23T13:03:05.580Z,99109.95
2018-04-23T13:05:52.299Z,99097.71
2018-04-23T13:08:34.695Z,99095.27
2018-04-23T13:11:16.644Z,99100.64
2018-04-23T13:13:55.923Z,99095.83
2018-04-23T13:16:34.053Z,99090.73
2018-04-23T13:19:13.183Z,99096.05
2018-04-23T13:21:53.570Z,99085.98
2018-04-23T13:24:32.902Z,99080.00
2018-04-23T13:27:19.814Z,99070.16
2018-04-23T13:30:12.074Z,99087.81
2018-04-23T13:33:00.121Z,99083.58
2018-04-23T13:35:44.226Z,99079.11
2018-04-23T13:38:24.276Z,99092.81
2018-04-23T13:41:06.547Z,99083.20
2018-04-23T13:43:44.709Z,99083.56
2018-04-23T13:46:26.470Z,99085.52
2018-04-23T13:49:05.632Z,99075.46
2018-04-23T13:51:45.138Z,99085.38
2018-04-23T13:54:28.384Z,99081.93
2018-04-23T13:57:08.869Z,116041.53
2018-04-23T13:59:52.479Z,116041.53
2018-04-23T14:02:34.456Z,116041.53
2018-04-23T14:05:16.339Z,116041.53
2018-04-23T14:08:03.759Z,116041.53
2018-04-23T14:10:53.855Z,116041.53
2018-04-23T14:13:43.508Z,116041.53
2018-04-23T14:16:32.671Z,116041.53
2018-04-23T14:19:17.805Z,116041.53
2018-04-23T14:21:59.211Z,116041.53
2018-04-23T14:24:37.316Z,116041.53
2018-04-23T14:27:16.411Z,116041.53
2018-04-23T14:29:55.836Z,116041.53
2018-04-23T14:32:48.867Z,116041.53
2018-04-23T14:38:28.246Z,116041.53
2018-04-23T14:41:10.498Z,116041.53
2018-04-23T14:43:54.274Z,116041.53
2018-04-23T14:46:33.170Z,116041.53
2018-04-23T14:49:17.085Z,116041.53
2018-04-23T14:51:55.871Z,116041.53
2018-04-23T14:54:35.197Z,116041.53
2018-04-23T14:57:13.671Z,116041.53
2018-04-23T14:59:52.868Z,116041.53
2018-04-23T15:02:32.139Z,116041.53
2018-04-23T15:05:24.187Z,116041.53
2018-04-23T15:08:03.072Z,116041.53
2018-04-23T15:10:41.160Z,116041.53
2018-04-23T15:13:19.482Z,116041.53
2018-04-23T15:15:58.288Z,116041.53
2018-04-23T15:18:37.163Z,116041.53
2018-04-23T15:21:16.163Z,116041.53
2018-04-23T15:23:55.645Z,116041.53
2018-04-23T15:26:37.748Z,116041.53
2018-04-23T15:29:19.362Z,116041.53
2018-04-23T15:31:57.553Z,116041.53
2018-04-23T15:34:38.347Z,116041.53
2018-04-23T15:37:17.165Z,116041.53
2018-04-23T15:39:56.887Z,116041.53
2018-04-23T15:42:38.145Z,116041.53
2018-04-23T15:45:16.422Z,116041.53
2018-04-23T15:47:56.144Z,116041.53
2018-04-23T15:50:36.027Z,116041.53
2018-04-23T15:53:14.426Z,116041.53
2018-04-23T15:55:53.471Z,116041.53
2018-04-23T15:58:31.973Z,116041.53
2018-04-23T16:01:11.082Z,116041.53
2018-04-23T16:03:52.407Z,116041.53
2018-04-23T16:06:31.838Z,116041.53
2018-04-23T16:09:09.997Z,116041.53
2018-04-23T16:11:48.939Z,116041.53
2018-04-23T16:14:27.332Z,116041.53
2018-04-23T16:17:06.959Z,116041.53
2018-04-23T16:19:46.315Z,116041.53
2018-04-23T16:22:41.519Z,116041.53
2018-04-23T16:25:29.765Z,116041.53
2018-04-23T16:28:12.550Z,116041.53
2018-04-23T16:30:54.683Z,116041.53
2018-04-23T16:33:34.222Z,116041.53
2018-04-23T16:36:12.582Z,116041.53
2018-04-23T16:38:50.829Z,116041.53
2018-04-23T16:41:30.399Z,116041.53
2018-04-23T16:44:08.473Z,116041.53
2018-04-23T16:46:47.604Z,116041.53
2018-04-23T16:49:28.771Z,116041.53
2018-04-23T16:52:07.131Z,116041.53
2018-04-23T16:54:45.375Z,116041.53
2018-04-23T16:57:28.016Z,116041.53
2018-04-23T17:00:06.484Z,116041.53
2018-04-23T17:02:51.244Z,116041.53
2018-04-23T17:05:29.455Z,116041.53
2018-04-23T17:08:07.885Z,116041.53
2018-04-23T17:10:48.291Z,116041.53
2018-04-23T17:13:26.520Z,116041.53
2018-04-23T17:16:04.659Z,116041.53
2018-04-23T17:18:44.669Z,116041.53
2018-04-23T17:21:22.910Z,116041.53
2018-04-23T17:24:04.059Z,116041.53
2018-04-23T17:26:46.264Z,116041.53
2018-04-23T17:29:27.265Z,116041.53
2018-04-23T17:32:09.248Z,116041.53
2018-04-23T17:34:49.308Z,116041.53
2018-04-23T17:37:32.545Z,116041.53
2018-04-23T17:40:13.417Z,116041.53
2018-04-23T17:42:51.722Z,116041.53
2018-04-23T17:45:35.992Z,116041.53
2018-04-23T17:48:14.396Z,116041.53
2018-04-23T17:50:55.191Z,116041.53
2018-04-23T17:53:55.349Z,116041.53
2018-04-23T17:56:37.341Z,116041.53
2018-04-23T17:59:19.639Z,116041.53
2018-04-23T18:01:58.491Z,116041.53
2018-04-23T18:04:41.265Z,116041.53
2018-04-23T18:07:32.858Z,116041.53
2018-04-23T18:10:18.725Z,116041.53
2018-04-23T18:16:03.714Z,116041.53
2018-04-23T18:51:27.118Z,116041.53
2018-04-23T18:54:05.843Z,116041.53
2018-04-23T18:56:45.035Z,116041.53
2018-04-23T18:59:25.018Z,116041.53
2018-04-23T19:02:03.561Z,116041.53
2018-04-23T19:04:42.790Z,116041.53
2018-04-23T19:07:23.330Z,116041.53
2018-04-23T19:10:03.905Z,116041.53
2018-04-23T19:12:42.845Z,116041.53
2018-04-23T19:15:25.244Z,116041.53
2018-04-23T19:18:04.999Z,116041.53
2018-04-23T19:20:43.337Z,116041.53
2018-04-23T19:23:26.077Z,116041.53
2018-04-23T19:26:04.947Z,116041.53
2018-04-23T19:28:44.713Z,116041.53
2018-04-23T19:31:28.220Z,116041.53
2018-04-23T19:34:06.435Z,116041.53
2018-04-23T19:36:44.695Z,116041.53
2018-04-23T19:39:27.806Z,116041.53
2018-04-23T19:42:06.137Z,116041.53
2018-04-23T19:44:47.696Z,116041.53
2018-04-23T19:47:26.870Z,116041.53
2018-04-23T19:50:09.254Z,116041.53
2018-04-23T19:52:47.770Z,116041.53
2018-04-23T19:55:27.774Z,116041.53
2018-04-23T19:58:10.754Z,116041.53
2018-04-23T20:00:49.880Z,116041.53
2018-04-23T20:03:29.418Z,116041.53
2018-04-23T20:06:11.715Z,116041.53
2018-04-23T20:08:50.156Z,116041.53
2018-04-23T20:11:30.114Z,116041.53
2018-04-23T20:14:12.550Z,116041.53
2018-04-23T20:16:51.021Z,116041.53
2018-04-23T20:19:31.307Z,116041.53
2018-04-23T20:22:11.663Z,116041.53
2018-04-23T20:24:51.696Z,116041.53
2018-04-23T20:27:30.058Z,116041.53
2018-04-23T20:30:09.303Z,116041.53
2018-04-23T20:32:51.429Z,116041.53
2018-04-23T20:35:29.771Z,116041.53
2018-04-23T20:38:08.442Z,116041.53
2018-04-23T20:40:46.827Z,116041.53
2018-04-23T20:43:25.316Z,116041.53
2018-04-23T20:46:03.457Z,116041.53
2018-04-23T20:48:42.515Z,116041.53
2018-04-23T20:51:21.717Z,116041.53
2018-04-23T20:54:00.317Z,116041.53
2018-04-23T20:56:39.609Z,116041.53
2018-04-23T20:59:18.725Z,116041.53
2018-04-23T21:01:58.955Z,116041.53
2018-04-23T21:04:37.752Z,116041.53
2018-04-23T21:07:16.662Z,116041.53
2018-04-23T21:10:00.753Z,116041.53
2018-04-23T21:12:39.141Z,116041.53
2018-04-23T21:15:17.522Z,116041.53
2018-04-23T21:18:00.717Z,116041.53
2018-04-23T21:20:41.316Z,116041.53
2018-04-23T21:23:19.754Z,116041.53
2018-04-23T21:25:58.930Z,116041.53
2018-04-23T21:28:40.308Z,116041.53
2018-04-23T21:31:20.627Z,116041.53
2018-04-23T21:34:00.588Z,116041.53
2018-04-23T21:36:39.527Z,116041.53
2018-04-23T21:39:20.471Z,116041.53
2018-04-23T21:41:59.555Z,116041.53
2018-04-23T21:44:37.875Z,116041.53
2018-04-23T21:47:21.187Z,116041.53
2018-04-23T21:49:59.536Z,116041.53
2018-04-23T21:52:38.141Z,116041.53
2018-04-23T21:55:17.353Z,116041.53
2018-04-23T21:57:57.502Z,116041.53
2018-04-23T22:00:36.573Z,116041.53
2018-04-23T22:03:15.435Z,116041.53
2018-04-23T22:05:56.484Z,116041.53
2018-04-23T22:08:35.761Z,116041.53
2018-04-23T22:11:14.656Z,116041.53
2018-04-23T22:13:53.108Z,116041.53
2018-04-23T22:16:32.251Z,116041.53
2018-04-23T22:19:12.768Z,116041.53
2018-04-23T22:21:51.856Z,116041.53
2018-04-23T22:24:30.030Z,116041.53
2018-04-23T22:27:08.497Z,116041.53
2018-04-23T22:29:47.615Z,116041.53
2018-04-23T22:32:27.241Z,116041.53
2018-04-23T22:35:09.836Z,116041.53
2018-04-23T22:37:49.993Z,116041.53
2018-04-23T22:40:28.585Z,116041.53
2018-04-23T22:43:09.857Z,116041.53
2018-04-23T22:45:48.469Z,116041.53
2018-04-23T22:48:27.818Z,116041.53
2018-04-23T22:51:10.169Z,116041.53
2018-04-23T22:53:48.526Z,116041.53
2018-04-23T22:56:26.907Z,116041.53
2018-04-23T22:59:06.698Z,116041.53
2018-04-23T23:01:45.461Z,116041.53
2018-04-23T23:04:23.844Z,116041.53
2018-04-23T23:07:03.138Z,116041.53
2018-04-23T23:09:41.974Z,116041.53
2018-04-23T23:12:21.415Z,116041.53
2018-04-23T23:14:59.693Z,116041.53
2018-04-23T23:17:39.629Z,116041.53
2018-04-23T23:20:18.265Z,116041.53
2018-04-23T23:22:56.302Z,116041.53
2018-04-23T23:25:37.231Z,116041.53
2018-04-23T23:28:16.341Z,116041.53
2018-04-23T23:30:55.530Z,116041.53
2018-04-23T23:33:36.067Z,116041.53
2018-04-23T23:36:14.724Z,116041.53
2018-04-23T23:38:52.833Z,116041.53
2018-04-23T23:41:36.057Z,116041.53
2018-04-23T23:44:14.540Z,116041.53
2018-04-23T23:46:53.936Z,116041.53
2018-04-23T23:49:35.030Z,116041.53
2018-04-23T23:52:13.503Z,116041.53
2018-04-23T23:54:53.507Z,116041.53
2018-04-23T23:57:34.132Z,116041.53
